Schuylkill Haven, Pennsylvania
Current Conditions -  °F | °C
As of 6:54 PM on Sunday 25 Jan 2015 (Local Time) from KRDG Reporting Station
Light Rain Light Rain  
Wind Chill: 37°   Ceiling: 3400
Heat Index: 37°   Visibility: 10mi
Dew Point: 28°   Wind: 0mph
Humidity: 70%   Direction: NA
Pressure: 29.88"   Gusts: NA
Location:  40.63°N, 76.17°W
Report Text: KRDG 252354Z 00000KT 10SM -RA OVC034 03/M02 A2988 RMK AO2 RAB14 SLP127 P0000 60000 T00281022 10044 20028 53022
Loading
Personal Weather Stations






























Interactive Weather Map New forecast layout! Learn more

10-Day Weather Forecast

Advertisements
Track Severe Weather on mobile